createdAt,value
2019-04-25T00:01:56.662Z,10.20
2019-04-25T00:04:25.917Z,10.00
2019-04-25T00:06:54.638Z,9.90
2019-04-25T00:09:24.815Z,9.90
2019-04-25T00:11:53.387Z,10.00
2019-04-25T00:14:23.590Z,9.90
2019-04-25T00:16:53.523Z,9.80
2019-04-25T00:19:22.152Z,9.70
2019-04-25T00:21:52.659Z,9.90
2019-04-25T00:24:35.214Z,9.90
2019-04-25T00:27:03.789Z,9.70
2019-04-25T00:29:32.636Z,9.70
2019-04-25T00:32:01.737Z,9.70
2019-04-25T00:34:31.640Z,9.30
2019-04-25T00:37:02.364Z,9.30
2019-04-25T00:39:31.982Z,9.40
2019-04-25T00:42:02.178Z,9.40
2019-04-25T00:44:31.946Z,9.30
2019-04-25T00:47:02.315Z,9.50
2019-04-25T00:49:32.250Z,9.30
2019-04-25T00:52:01.935Z,9.20
2019-04-25T00:54:31.333Z,9.20
2019-04-25T00:57:00.098Z,9.20
2019-04-25T00:59:45.529Z,9.20
2019-04-25T01:02:18.697Z,8.70
2019-04-25T01:04:47.676Z,8.70
2019-04-25T01:07:16.315Z,8.80
2019-04-25T01:09:45.707Z,8.60
2019-04-25T01:12:14.552Z,8.50
2019-04-25T01:14:43.162Z,8.40
2019-04-25T01:17:11.802Z,8.50
2019-04-25T01:19:40.340Z,8.40
2019-04-25T01:22:09.695Z,8.10
2019-04-25T01:24:38.308Z,7.90
2019-04-25T01:27:07.919Z,8.10
2019-04-25T01:29:36.530Z,8.00
2019-04-25T01:32:06.475Z,8.20
2019-04-25T01:34:55.556Z,8.20
2019-04-25T01:37:37.034Z,8.40
2019-04-25T01:40:11.722Z,8.40
2019-04-25T01:42:44.733Z,8.60
2019-04-25T01:45:14.092Z,8.70
2019-04-25T01:47:43.414Z,8.50
2019-04-25T01:50:13.751Z,8.40
2019-04-25T01:52:43.436Z,8.50
2019-04-25T01:55:13.763Z,8.50
2019-04-25T01:57:45.068Z,8.40
2019-04-25T02:00:15.176Z,8.50
2019-04-25T02:02:43.783Z,8.40
2019-04-25T02:05:13.883Z,8.40
2019-04-25T02:07:42.565Z,8.40
2019-04-25T02:10:13.405Z,8.20
2019-04-25T02:12:46.939Z,8.10
2019-04-25T02:15:17.142Z,8.10
2019-04-25T02:17:45.674Z,8.00
2019-04-25T02:20:14.384Z,8.00
2019-04-25T02:22:44.172Z,7.80
2019-04-25T02:25:13.258Z,7.90
2019-04-25T02:27:41.924Z,7.80
2019-04-25T02:30:11.815Z,7.60
2019-04-25T02:32:40.346Z,7.70
2019-04-25T02:35:09.993Z,7.80
2019-04-25T02:37:38.732Z,7.90
2019-04-25T02:40:08.696Z,8.00
2019-04-25T02:42:37.542Z,8.00
2019-04-25T02:45:16.659Z,7.80
2019-04-25T02:47:49.866Z,8.00
2019-04-25T02:50:36.634Z,7.70
2019-04-25T02:53:07.448Z,7.50
2019-04-25T02:55:37.666Z,7.90
2019-04-25T02:58:10.053Z,7.80
2019-04-25T03:00:51.845Z,7.60
2019-04-25T03:03:08.574Z,7.70
2019-04-25T03:05:37.565Z,7.80
2019-04-25T03:08:09.002Z,7.80
2019-04-25T03:10:36.311Z,7.80
2019-04-25T03:13:11.236Z,7.70
2019-04-25T03:15:36.549Z,7.70
2019-04-25T03:18:09.280Z,7.60
2019-04-25T03:20:40.074Z,7.60
2019-04-25T03:23:14.447Z,7.60
2019-04-25T03:25:43.564Z,7.90
2019-04-25T03:28:13.780Z,8.00
2019-04-25T03:30:44.894Z,7.80
2019-04-25T03:33:18.935Z,7.90
2019-04-25T03:35:43.269Z,7.50
2019-04-25T03:38:12.591Z,7.60
2019-04-25T03:40:41.595Z,7.80
2019-04-25T03:43:10.212Z,7.80
2019-04-25T03:45:38.844Z,7.70
2019-04-25T03:48:07.556Z,7.80
2019-04-25T03:50:36.183Z,7.80
2019-04-25T03:53:06.276Z,7.70
2019-04-25T03:55:35.961Z,7.60
2019-04-25T03:58:08.032Z,7.50
2019-04-25T04:00:36.454Z,7.30
2019-04-25T04:03:06.675Z,7.50
2019-04-25T04:05:35.489Z,7.50
2019-04-25T04:08:05.206Z,7.40
2019-04-25T04:10:34.533Z,7.50
2019-04-25T04:13:06.277Z,7.40
2019-04-25T04:15:34.695Z,7.40
2019-04-25T04:18:08.590Z,7.40
2019-04-25T04:20:53.769Z,7.40
2019-04-25T04:23:26.758Z,7.40
2019-04-25T04:25:55.358Z,7.30
2019-04-25T04:28:23.940Z,7.20
2019-04-25T04:30:54.044Z,7.10
2019-04-25T04:33:30.180Z,7.10
2019-04-25T04:35:54.289Z,7.20
2019-04-25T04:38:24.084Z,7.50
2019-04-25T04:40:52.724Z,7.30
2019-04-25T04:43:21.682Z,7.20
2019-04-25T04:45:50.224Z,7.20
2019-04-25T04:48:18.903Z,7.30
2019-04-25T04:50:47.418Z,7.10
2019-04-25T04:53:16.335Z,7.20
2019-04-25T04:55:46.063Z,7.20
2019-04-25T04:58:16.085Z,7.30
2019-04-25T05:00:45.015Z,7.30
2019-04-25T05:03:15.802Z,7.40
2019-04-25T05:05:48.709Z,7.20
2019-04-25T05:08:24.938Z,7.20
2019-04-25T05:10:54.214Z,7.20
2019-04-25T05:13:24.263Z,7.30
2019-04-25T05:15:53.265Z,7.40
2019-04-25T05:18:35.257Z,7.70
2019-04-25T05:20:52.166Z,7.90
2019-04-25T05:23:20.982Z,7.80
2019-04-25T05:25:49.675Z,7.80
2019-04-25T05:28:19.165Z,7.80
2019-04-25T05:30:53.531Z,7.80
2019-04-25T05:33:22.736Z,7.90
2019-04-25T05:35:53.781Z,8.00
2019-04-25T05:38:24.067Z,8.20
2019-04-25T05:40:54.321Z,8.40
2019-04-25T05:43:24.502Z,8.50
2019-04-25T05:45:54.140Z,8.60
2019-04-25T05:48:24.960Z,8.60
2019-04-25T05:50:53.770Z,8.60
2019-04-25T05:53:24.176Z,8.70
2019-04-25T05:55:54.055Z,8.80
2019-04-25T05:58:24.531Z,9.00
2019-04-25T06:00:54.319Z,9.30
2019-04-25T06:03:24.850Z,9.50
2019-04-25T06:05:53.435Z,9.60
2019-04-25T06:08:25.471Z,9.80
2019-04-25T06:10:58.288Z,9.80
2019-04-25T06:13:33.222Z,9.60
2019-04-25T06:16:03.655Z,9.80
2019-04-25T06:18:33.944Z,10.00
2019-04-25T06:21:03.167Z,10.20
2019-04-25T06:23:51.457Z,10.40
2019-04-25T06:26:30.863Z,10.70
2019-04-25T06:28:57.100Z,10.90
2019-04-25T06:31:21.431Z,11.00
2019-04-25T06:33:50.228Z,11.20
2019-04-25T06:36:18.910Z,11.30
2019-04-25T06:38:48.001Z,11.60
2019-04-25T06:41:16.495Z,11.70
2019-04-25T06:43:46.670Z,11.40
2019-04-25T06:46:20.200Z,11.40
2019-04-25T06:49:03.517Z,11.80
2019-04-25T06:51:49.741Z,12.20
2019-04-25T06:54:19.394Z,12.40
2019-04-25T06:56:48.077Z,12.60
2019-04-25T06:59:16.762Z,12.70
2019-04-25T07:01:45.381Z,12.90
2019-04-25T07:04:14.261Z,13.20
2019-04-25T07:06:44.492Z,13.40
2019-04-25T07:09:14.610Z,13.50
2019-04-25T07:11:44.174Z,13.50
2019-04-25T07:14:14.199Z,13.70
2019-04-25T07:16:43.404Z,13.70
2019-04-25T07:19:12.137Z,13.90
2019-04-25T07:21:41.398Z,14.10
2019-04-25T07:24:10.070Z,14.20
2019-04-25T07:26:55.745Z,14.30
2019-04-25T07:29:28.751Z,14.60
2019-04-25T07:31:59.018Z,14.50
2019-04-25T07:34:30.798Z,15.00
2019-04-25T07:36:59.374Z,15.20
2019-04-25T07:39:27.915Z,15.20
2019-04-25T07:41:56.873Z,15.40
2019-04-25T07:44:38.237Z,15.60
2019-04-25T07:46:55.558Z,15.90
2019-04-25T07:49:24.031Z,15.30
2019-04-25T07:51:53.649Z,15.40
2019-04-25T07:54:24.004Z,15.70
2019-04-25T07:56:54.801Z,15.50
2019-04-25T07:59:23.743Z,15.60
2019-04-25T08:01:53.534Z,15.40
2019-04-25T08:04:23.606Z,15.70
2019-04-25T08:06:52.293Z,15.80
2019-04-25T08:09:20.834Z,16.00
2019-04-25T08:11:49.393Z,16.30
2019-04-25T08:14:19.565Z,16.30
2019-04-25T08:17:06.174Z,16.30
2019-04-25T08:19:35.582Z,16.40
2019-04-25T08:22:05.319Z,16.60
2019-04-25T08:24:35.929Z,17.10
2019-04-25T08:27:04.999Z,17.30
2019-04-25T08:29:36.426Z,17.40
2019-04-25T08:32:04.596Z,17.30
2019-04-25T08:34:34.836Z,17.00
2019-04-25T08:37:04.107Z,17.40
2019-04-25T08:39:34.419Z,17.60
2019-04-25T08:42:03.509Z,18.00
2019-04-25T08:44:34.768Z,18.00
2019-04-25T08:47:04.504Z,18.40
2019-04-25T08:49:40.782Z,18.70
2019-04-25T08:52:09.358Z,19.00
2019-04-25T08:54:41.515Z,19.00
2019-04-25T08:57:11.424Z,18.70
2019-04-25T08:59:50.486Z,19.00
2019-04-25T09:02:18.752Z,18.90
2019-04-25T09:04:49.275Z,19.30
2019-04-25T09:07:17.918Z,19.60
2019-04-25T09:09:46.457Z,19.80
2019-04-25T09:12:15.025Z,19.50
2019-04-25T09:14:46.268Z,19.60
2019-04-25T09:17:14.281Z,19.80
2019-04-25T09:19:44.439Z,19.80
2019-04-25T09:22:13.284Z,19.40
2019-04-25T09:24:42.096Z,19.50
2019-04-25T09:27:10.737Z,19.10
2019-04-25T09:29:39.332Z,19.20
2019-04-25T09:32:07.871Z,19.30
2019-04-25T09:34:36.466Z,19.10
2019-04-25T09:37:05.351Z,19.50
2019-04-25T09:39:38.967Z,19.50
2019-04-25T09:42:07.678Z,19.30
2019-04-25T09:44:54.154Z,19.60
2019-04-25T09:47:23.429Z,19.40
2019-04-25T09:49:53.541Z,19.10
2019-04-25T09:52:24.363Z,19.30
2019-04-25T09:54:54.545Z,19.80
2019-04-25T09:57:41.101Z,20.00
2019-04-25T10:00:13.185Z,20.30
2019-04-25T10:02:42.298Z,20.30
2019-04-25T10:05:10.941Z,20.40
2019-04-25T10:07:39.442Z,20.10
2019-04-25T10:10:08.718Z,20.70
2019-04-25T10:12:37.353Z,20.60
2019-04-25T10:15:20.669Z,20.50
2019-04-25T10:17:49.314Z,20.90
2019-04-25T10:20:19.042Z,21.30
2019-04-25T10:22:47.618Z,21.80
2019-04-25T10:25:16.680Z,21.90
2019-04-25T10:27:48.863Z,22.20
2019-04-25T10:30:21.593Z,22.40
2019-04-25T10:32:48.069Z,22.60
2019-04-25T10:35:16.774Z,23.00
2019-04-25T10:37:46.493Z,22.70
2019-04-25T10:40:15.894Z,22.80
2019-04-25T10:42:47.672Z,23.10
2019-04-25T10:45:23.314Z,23.30
2019-04-25T10:47:46.708Z,23.60
2019-04-25T10:50:15.999Z,23.80
2019-04-25T10:52:45.879Z,23.70
2019-04-25T10:55:14.959Z,23.50
2019-04-25T10:57:45.174Z,23.10
2019-04-25T11:00:21.203Z,23.00
2019-04-25T11:02:49.728Z,23.10
2019-04-25T11:05:18.630Z,23.20
2019-04-25T11:07:47.170Z,23.40
2019-04-25T11:10:15.822Z,23.30
2019-04-25T11:12:47.172Z,23.30
2019-04-25T11:15:15.914Z,23.80
2019-04-25T11:17:45.831Z,24.00
2019-04-25T11:20:26.199Z,24.00
2019-04-25T11:22:54.816Z,23.90
2019-04-25T11:25:24.131Z,23.30
2019-04-25T11:27:54.159Z,23.20
2019-04-25T11:30:25.339Z,23.30
2019-04-25T11:32:54.692Z,23.40
2019-04-25T11:35:24.191Z,23.40
2019-04-25T11:37:54.878Z,23.40
2019-04-25T11:40:40.541Z,23.40
2019-04-25T11:43:09.179Z,23.40
2019-04-25T11:45:38.837Z,23.20
2019-04-25T11:48:07.481Z,22.80
2019-04-25T11:50:37.086Z,22.80
2019-04-25T11:53:05.851Z,22.90
2019-04-25T11:55:34.385Z,23.10
2019-04-25T11:58:03.673Z,23.00
2019-04-25T12:00:33.851Z,23.20
2019-04-25T12:03:03.639Z,23.40
2019-04-25T12:05:32.285Z,23.50
2019-04-25T12:08:00.837Z,23.40
2019-04-25T12:10:30.032Z,23.50
2019-04-25T12:12:58.799Z,23.50
2019-04-25T12:15:27.855Z,23.80
2019-04-25T12:17:57.326Z,23.50
2019-04-25T12:20:26.198Z,23.50
2019-04-25T12:23:05.954Z,23.70
2019-04-25T12:25:25.008Z,23.80
2019-04-25T12:27:54.575Z,24.00
2019-04-25T12:30:36.666Z,24.30
2019-04-25T12:32:53.902Z,24.50
2019-04-25T12:35:24.256Z,24.30
2019-04-25T12:37:53.989Z,24.10
2019-04-25T12:40:24.242Z,24.10
2019-04-25T12:42:52.867Z,24.20
2019-04-25T12:45:25.845Z,24.40
2019-04-25T12:47:59.353Z,24.60
2019-04-25T12:50:28.041Z,24.60
2019-04-25T12:52:56.498Z,24.70
2019-04-25T12:55:25.130Z,24.60
2019-04-25T12:57:55.566Z,24.60
2019-04-25T13:00:25.785Z,24.60
2019-04-25T13:02:54.557Z,24.50
2019-04-25T13:05:24.433Z,24.40
2019-04-25T13:07:55.949Z,24.50
2019-04-25T13:10:23.695Z,24.50
2019-04-25T13:12:55.258Z,24.90
2019-04-25T13:15:23.480Z,25.40
2019-04-25T13:17:53.650Z,25.80
2019-04-25T13:20:22.393Z,25.60
2019-04-25T13:22:51.034Z,25.50
2019-04-25T13:25:21.370Z,25.50
2019-04-25T13:28:05.536Z,25.80
2019-04-25T13:31:01.346Z,26.10
2019-04-25T13:33:35.474Z,26.20
2019-04-25T13:36:06.168Z,26.30
2019-04-25T13:38:34.826Z,26.50
2019-04-25T13:41:04.076Z,26.60
2019-04-25T13:43:33.601Z,26.50
2019-04-25T13:46:02.445Z,26.60
2019-04-25T13:48:31.117Z,26.70
2019-04-25T13:50:59.613Z,26.80
2019-04-25T13:53:29.208Z,27.00
2019-04-25T13:55:58.082Z,27.20
2019-04-25T13:58:29.520Z,27.20
2019-04-25T14:00:57.605Z,27.20
2019-04-25T14:03:26.158Z,27.30
2019-04-25T14:05:54.797Z,27.40
2019-04-25T14:08:24.710Z,27.40
2019-04-25T14:10:54.299Z,27.40
2019-04-25T14:13:25.135Z,27.40
2019-04-25T14:16:00.784Z,27.40
2019-04-25T14:18:31.547Z,27.60
2019-04-25T14:21:03.446Z,27.60
2019-04-25T14:23:32.115Z,27.70
2019-04-25T14:26:00.641Z,27.90
2019-04-25T14:28:31.560Z,27.90
2019-04-25T14:30:59.694Z,28.00
2019-04-25T14:33:28.728Z,27.60
2019-04-25T14:35:57.338Z,27.10
2019-04-25T14:38:26.612Z,27.00
2019-04-25T14:40:55.234Z,27.00
2019-04-25T14:43:24.098Z,27.00
2019-04-25T14:45:52.725Z,26.90
2019-04-25T14:48:21.352Z,26.70
2019-04-25T14:50:49.894Z,26.70
2019-04-25T14:53:18.459Z,26.70
2019-04-25T14:55:54.753Z,26.60
2019-04-25T14:58:25.027Z,26.60
2019-04-25T15:00:53.650Z,26.70
2019-04-25T15:03:23.095Z,26.80
2019-04-25T15:05:52.670Z,26.80
2019-04-25T15:08:21.319Z,26.90
2019-04-25T15:10:49.855Z,26.90
2019-04-25T15:13:18.483Z,27.00
2019-04-25T15:15:47.022Z,27.10
2019-04-25T15:18:15.513Z,27.30
2019-04-25T15:20:44.110Z,27.50
2019-04-25T15:23:12.674Z,27.50
2019-04-25T15:25:41.266Z,27.40
2019-04-25T15:28:09.946Z,27.40
2019-04-25T15:30:39.478Z,27.60
2019-04-25T15:33:08.172Z,27.80
2019-04-25T15:35:44.981Z,28.10
2019-04-25T15:38:18.254Z,28.10
2019-04-25T15:40:51.418Z,28.00
2019-04-25T15:43:21.631Z,27.90
2019-04-25T15:46:00.780Z,28.00
2019-04-25T15:48:29.360Z,28.30
2019-04-25T15:50:57.957Z,28.50
2019-04-25T15:53:26.493Z,28.60
2019-04-25T15:55:55.119Z,28.60
2019-04-25T15:58:23.728Z,29.00
2019-04-25T16:00:52.433Z,28.70
2019-04-25T16:03:21.106Z,28.50
2019-04-25T16:05:49.605Z,28.20
2019-04-25T16:08:18.139Z,27.80
2019-04-25T16:10:46.633Z,27.40
2019-04-25T16:13:15.237Z,27.10
2019-04-25T16:15:43.802Z,26.90
2019-04-25T16:18:12.674Z,26.60
2019-04-25T16:20:41.234Z,26.50
2019-04-25T16:23:09.967Z,26.50
2019-04-25T16:25:38.644Z,26.30
2019-04-25T16:28:07.205Z,26.20
2019-04-25T16:30:36.515Z,26.30
2019-04-25T16:33:05.118Z,26.30
2019-04-25T16:35:33.675Z,26.20
2019-04-25T16:38:02.502Z,26.10
2019-04-25T16:40:31.893Z,26.00
2019-04-25T16:43:02.224Z,25.80
2019-04-25T16:45:31.830Z,25.70
2019-04-25T16:48:00.289Z,25.70
2019-04-25T16:50:30.349Z,25.50
2019-04-25T16:52:58.879Z,25.50
2019-04-25T16:55:27.678Z,25.50
2019-04-25T16:57:56.570Z,25.50
2019-04-25T17:00:39.167Z,25.50
2019-04-25T17:03:07.974Z,25.30
2019-04-25T17:05:37.095Z,25.00
2019-04-25T17:08:06.043Z,25.10
2019-04-25T17:10:34.837Z,25.00
2019-04-25T17:13:03.470Z,25.10
2019-04-25T17:15:50.193Z,25.10
2019-04-25T17:18:22.874Z,25.10
2019-04-25T17:20:56.154Z,25.00
2019-04-25T17:23:24.982Z,24.80
2019-04-25T17:25:53.466Z,24.80
2019-04-25T17:28:22.301Z,24.90
2019-04-25T17:30:52.420Z,24.90
2019-04-25T17:33:25.482Z,24.90
2019-04-25T17:36:11.890Z,24.90
2019-04-25T17:38:42.230Z,24.70
2019-04-25T17:41:10.831Z,24.80
2019-04-25T17:43:39.407Z,24.70
2019-04-25T17:46:10.973Z,24.70
2019-04-25T17:48:40.473Z,24.50
2019-04-25T17:51:09.222Z,24.50
2019-04-25T17:53:37.792Z,24.50
2019-04-25T17:56:06.454Z,24.20
2019-04-25T17:58:35.021Z,24.30
2019-04-25T18:01:04.894Z,24.10
2019-04-25T18:03:33.728Z,24.00
2019-04-25T18:06:02.393Z,24.00
2019-04-25T18:08:30.953Z,24.00
2019-04-25T18:10:59.418Z,24.20
2019-04-25T18:13:28.048Z,24.00
2019-04-25T18:15:58.816Z,23.90
2019-04-25T18:18:35.415Z,23.90
2019-04-25T18:21:04.041Z,23.80
2019-04-25T18:23:35.174Z,23.50
2019-04-25T18:26:08.381Z,23.30
2019-04-25T18:28:44.518Z,23.00
2019-04-25T18:31:13.122Z,23.00
2019-04-25T18:33:41.816Z,23.10
2019-04-25T18:36:12.406Z,22.80
2019-04-25T18:38:43.779Z,22.40
2019-04-25T18:41:14.018Z,22.00
2019-04-25T18:43:53.057Z,21.70
2019-04-25T18:46:23.166Z,21.60
2019-04-25T18:48:52.217Z,21.20
2019-04-25T18:51:20.685Z,21.10
2019-04-25T18:53:54.082Z,20.90
2019-04-25T18:56:37.596Z,20.70
2019-04-25T18:59:25.912Z,20.60
2019-04-25T19:02:14.269Z,20.40
2019-04-25T19:04:56.210Z,20.20
2019-04-25T19:07:24.673Z,20.10
2019-04-25T19:09:53.312Z,19.90
2019-04-25T19:12:21.919Z,19.80
2019-04-25T19:14:50.482Z,19.60
2019-04-25T19:17:19.471Z,19.50
2019-04-25T19:19:48.093Z,19.40
2019-04-25T19:22:16.557Z,18.90
2019-04-25T19:24:46.390Z,18.70
2019-04-25T19:27:23.551Z,18.70
2019-04-25T19:29:45.938Z,18.60
2019-04-25T19:32:14.660Z,18.40
2019-04-25T19:34:43.182Z,18.20
2019-04-25T19:37:11.741Z,17.70
2019-04-25T19:39:42.795Z,17.70
2019-04-25T19:42:13.065Z,17.60
2019-04-25T19:44:42.310Z,17.70
2019-04-25T19:47:10.964Z,17.30
2019-04-25T19:49:39.502Z,17.20
2019-04-25T19:52:08.003Z,17.20
2019-04-25T19:54:36.539Z,16.90
2019-04-25T19:57:05.125Z,16.70
2019-04-25T19:59:33.663Z,16.70
2019-04-25T20:02:06.406Z,16.60
2019-04-25T20:04:53.053Z,16.30
2019-04-25T20:07:23.445Z,16.50
2019-04-25T20:10:05.487Z,16.40
2019-04-25T20:12:45.408Z,16.10
2019-04-25T20:15:15.432Z,15.80
2019-04-25T20:17:44.810Z,15.80
2019-04-25T20:20:14.850Z,15.80
2019-04-25T20:22:43.805Z,15.70
2019-04-25T20:25:13.789Z,15.40
2019-04-25T20:27:42.653Z,15.30
2019-04-25T20:30:11.339Z,15.30
2019-04-25T20:32:39.899Z,15.10
2019-04-25T20:35:08.870Z,14.90
2019-04-25T20:37:37.357Z,14.80
2019-04-25T20:40:07.760Z,14.70
2019-04-25T20:42:36.601Z,14.70
2019-04-25T20:45:07.372Z,14.70
2019-04-25T20:47:35.933Z,14.50
2019-04-25T20:50:05.647Z,14.70
2019-04-25T20:52:34.231Z,14.70
2019-04-25T20:55:02.846Z,14.70
2019-04-25T20:57:31.383Z,14.90
2019-04-25T20:59:59.937Z,14.80
2019-04-25T21:02:28.564Z,14.80
2019-04-25T21:04:57.118Z,14.80
2019-04-25T21:07:25.607Z,14.80
2019-04-25T21:09:54.166Z,14.90
2019-04-25T21:12:22.949Z,14.80
2019-04-25T21:14:56.877Z,14.90
2019-04-25T21:17:36.377Z,15.10
2019-04-25T21:20:07.758Z,15.10
2019-04-25T21:22:36.371Z,15.20
2019-04-25T21:25:05.782Z,15.20
2019-04-25T21:27:34.403Z,15.10
2019-04-25T21:30:03.699Z,15.00
2019-04-25T21:32:34.133Z,14.80
2019-04-25T21:35:02.892Z,14.50
2019-04-25T21:37:31.431Z,15.00
2019-04-25T21:40:02.884Z,15.00
2019-04-25T21:42:33.376Z,14.80
2019-04-25T21:45:02.692Z,14.60
2019-04-25T21:47:31.283Z,14.50
2019-04-25T21:50:00.690Z,14.60
2019-04-25T21:52:29.607Z,14.40
2019-04-25T21:54:58.594Z,14.20
2019-04-25T21:57:28.081Z,14.00
2019-04-25T22:00:03.112Z,14.20
2019-04-25T22:02:27.714Z,14.40
2019-04-25T22:04:56.649Z,14.50
2019-04-25T22:07:25.662Z,14.40
2019-04-25T22:09:55.595Z,14.30
2019-04-25T22:12:24.806Z,14.00
2019-04-25T22:14:53.345Z,13.90
2019-04-25T22:17:21.917Z,13.70
2019-04-25T22:19:50.989Z,13.70
2019-04-25T22:22:22.080Z,13.60
2019-04-25T22:24:50.076Z,13.60
2019-04-25T22:27:20.271Z,13.60
2019-04-25T22:29:50.449Z,13.70
2019-04-25T22:32:23.934Z,13.60
2019-04-25T22:35:09.458Z,13.70
2019-04-25T22:37:38.019Z,13.60
2019-04-25T22:40:07.483Z,13.80
2019-04-25T22:42:36.071Z,13.80
2019-04-25T22:45:06.059Z,13.60
2019-04-25T22:47:34.622Z,13.30
2019-04-25T22:50:04.418Z,13.20
2019-04-25T22:52:33.462Z,13.10
2019-04-25T22:55:02.203Z,13.20
2019-04-25T22:57:31.173Z,13.30
2019-04-25T23:00:01.528Z,13.30
2019-04-25T23:02:34.521Z,13.40
2019-04-25T23:05:17.069Z,13.40
2019-04-25T23:07:45.667Z,13.00
2019-04-25T23:10:14.743Z,12.70
2019-04-25T23:12:43.303Z,12.70
2019-04-25T23:15:13.757Z,12.40
2019-04-25T23:17:42.327Z,12.30
2019-04-25T23:20:11.757Z,12.20
2019-04-25T23:22:40.498Z,12.30
2019-04-25T23:25:12.061Z,12.30
2019-04-25T23:27:45.221Z,12.20
2019-04-25T23:30:16.137Z,12.30
2019-04-25T23:32:44.698Z,12.30
2019-04-25T23:35:24.195Z,12.30
2019-04-25T23:37:43.577Z,12.40
2019-04-25T23:40:12.249Z,12.50
2019-04-25T23:42:40.792Z,12.10
2019-04-25T23:45:10.355Z,11.70
2019-04-25T23:47:38.966Z,11.90
2019-04-25T23:50:08.749Z,12.00
2019-04-25T23:52:37.780Z,12.00
2019-04-25T23:55:06.746Z,11.90
2019-04-25T23:57:36.627Z,11.90
